sensor_id;sensor_type;location;lat;lon;timestamp;temperature;humidity
12164;DHT22;6145;50.192;10.064;2022-09-03T00:01:15;19.10;41.70
12164;DHT22;6145;50.192;10.064;2022-09-03T00:03:46;19.00;41.80
12164;DHT22;6145;50.192;10.064;2022-09-03T00:06:19;19.00;41.90
12164;DHT22;6145;50.192;10.064;2022-09-03T00:08:51;18.90;41.80
12164;DHT22;6145;50.192;10.064;2022-09-03T00:11:23;18.80;41.80
12164;DHT22;6145;50.192;10.064;2022-09-03T00:13:56;18.90;42.00
12164;DHT22;6145;50.192;10.064;2022-09-03T00:16:28;18.80;42.10
12164;DHT22;6145;50.192;10.064;2022-09-03T00:18:58;18.80;42.20
12164;DHT22;6145;50.192;10.064;2022-09-03T00:21:34;18.80;42.30
12164;DHT22;6145;50.192;10.064;2022-09-03T00:24:04;18.70;42.30
12164;DHT22;6145;50.192;10.064;2022-09-03T00:26:34;18.70;42.30
12164;DHT22;6145;50.192;10.064;2022-09-03T00:29:05;18.60;42.30
12164;DHT22;6145;50.192;10.064;2022-09-03T00:31:37;18.60;42.40
12164;DHT22;6145;50.192;10.064;2022-09-03T00:34:13;18.50;42.40
12164;DHT22;6145;50.192;10.064;2022-09-03T00:36:42;18.50;42.60
12164;DHT22;6145;50.192;10.064;2022-09-03T00:39:10;18.60;42.80
12164;DHT22;6145;50.192;10.064;2022-09-03T00:41:43;18.50;42.60
12164;DHT22;6145;50.192;10.064;2022-09-03T00:44:30;18.40;42.70
12164;DHT22;6145;50.192;10.064;2022-09-03T00:47:06;18.40;43.40
12164;DHT22;6145;50.192;10.064;2022-09-03T00:49:44;18.30;42.80
12164;DHT22;6145;50.192;10.064;2022-09-03T00:52:17;18.30;42.90
12164;DHT22;6145;50.192;10.064;2022-09-03T00:54:50;18.20;42.90
12164;DHT22;6145;50.192;10.064;2022-09-03T00:57:33;18.20;43.00
12164;DHT22;6145;50.192;10.064;2022-09-03T01:00:06;18.20;43.20
12164;DHT22;6145;50.192;10.064;2022-09-03T01:02:45;18.10;43.20
12164;DHT22;6145;50.192;10.064;2022-09-03T01:05:23;18.10;43.20
12164;DHT22;6145;50.192;10.064;2022-09-03T01:08:02;18.10;43.30
12164;DHT22;6145;50.192;10.064;2022-09-03T01:10:37;18.00;43.40
12164;DHT22;6145;50.192;10.064;2022-09-03T01:13:12;18.00;43.40
12164;DHT22;6145;50.192;10.064;2022-09-03T01:15:44;18.00;43.60
12164;DHT22;6145;50.192;10.064;2022-09-03T01:18:24;18.00;43.70
12164;DHT22;6145;50.192;10.064;2022-09-03T01:21:13;17.90;43.70
12164;DHT22;6145;50.192;10.064;2022-09-03T01:24:01;17.90;44.00
12164;DHT22;6145;50.192;10.064;2022-09-03T01:26:47;17.90;44.00
12164;DHT22;6145;50.192;10.064;2022-09-03T01:29:25;17.80;44.00
12164;DHT22;6145;50.192;10.064;2022-09-03T01:32:00;17.80;44.10
12164;DHT22;6145;50.192;10.064;2022-09-03T01:34:38;17.80;44.20
12164;DHT22;6145;50.192;10.064;2022-09-03T01:37:14;17.80;44.30
12164;DHT22;6145;50.192;10.064;2022-09-03T01:39:51;17.60;44.20
12164;DHT22;6145;50.192;10.064;2022-09-03T01:42:24;17.80;44.50
12164;DHT22;6145;50.192;10.064;2022-09-03T01:45:19;17.70;44.50
12164;DHT22;6145;50.192;10.064;2022-09-03T01:48:00;17.50;44.70
12164;DHT22;6145;50.192;10.064;2022-09-03T01:50:38;17.50;44.80
12164;DHT22;6145;50.192;10.064;2022-09-03T01:53:11;17.50;45.10
12164;DHT22;6145;50.192;10.064;2022-09-03T01:55:51;17.40;45.00
12164;DHT22;6145;50.192;10.064;2022-09-03T01:58:25;17.40;45.10
12164;DHT22;6145;50.192;10.064;2022-09-03T02:01:00;17.40;45.40
12164;DHT22;6145;50.192;10.064;2022-09-03T02:03:34;17.40;45.60
12164;DHT22;6145;50.192;10.064;2022-09-03T02:06:01;17.30;45.50
12164;DHT22;6145;50.192;10.064;2022-09-03T02:08:31;17.20;45.60
12164;DHT22;6145;50.192;10.064;2022-09-03T02:10:58;17.20;45.90
12164;DHT22;6145;50.192;10.064;2022-09-03T02:13:29;17.20;45.80
12164;DHT22;6145;50.192;10.064;2022-09-03T02:16:01;17.20;46.00
12164;DHT22;6145;50.192;10.064;2022-09-03T02:18:30;17.10;45.80
12164;DHT22;6145;50.192;10.064;2022-09-03T02:20:59;17.10;46.00
12164;DHT22;6145;50.192;10.064;2022-09-03T02:23:26;17.10;46.10
12164;DHT22;6145;50.192;10.064;2022-09-03T02:25:56;17.10;46.00
12164;DHT22;6145;50.192;10.064;2022-09-03T02:28:23;17.10;46.00
12164;DHT22;6145;50.192;10.064;2022-09-03T02:30:51;17.00;45.90
12164;DHT22;6145;50.192;10.064;2022-09-03T02:33:20;17.10;46.50
12164;DHT22;6145;50.192;10.064;2022-09-03T02:35:47;17.10;45.80
12164;DHT22;6145;50.192;10.064;2022-09-03T02:38:15;17.00;45.70
12164;DHT22;6145;50.192;10.064;2022-09-03T02:40:42;17.00;45.70
12164;DHT22;6145;50.192;10.064;2022-09-03T02:43:13;17.00;45.70
12164;DHT22;6145;50.192;10.064;2022-09-03T02:45:45;16.90;45.60
12164;DHT22;6145;50.192;10.064;2022-09-03T02:48:15;17.00;45.70
12164;DHT22;6145;50.192;10.064;2022-09-03T02:50:44;17.00;45.70
12164;DHT22;6145;50.192;10.064;2022-09-03T02:53:11;17.00;45.70
12164;DHT22;6145;50.192;10.064;2022-09-03T02:55:37;17.00;45.70
12164;DHT22;6145;50.192;10.064;2022-09-03T02:58:04;17.00;45.70
12164;DHT22;6145;50.192;10.064;2022-09-03T03:00:33;16.90;45.60
12164;DHT22;6145;50.192;10.064;2022-09-03T03:03:00;16.90;45.70
12164;DHT22;6145;50.192;10.064;2022-09-03T03:05:33;16.90;45.70
12164;DHT22;6145;50.192;10.064;2022-09-03T03:08:03;16.90;45.90
12164;DHT22;6145;50.192;10.064;2022-09-03T03:10:29;16.90;46.60
12164;DHT22;6145;50.192;10.064;2022-09-03T03:12:56;16.90;45.90
12164;DHT22;6145;50.192;10.064;2022-09-03T03:15:23;16.90;45.90
12164;DHT22;6145;50.192;10.064;2022-09-03T03:17:49;16.80;45.90
12164;DHT22;6145;50.192;10.064;2022-09-03T03:20:16;16.80;46.00
12164;DHT22;6145;50.192;10.064;2022-09-03T03:22:43;16.80;46.10
12164;DHT22;6145;50.192;10.064;2022-09-03T03:25:11;16.90;46.30
12164;DHT22;6145;50.192;10.064;2022-09-03T03:27:38;16.80;46.20
12164;DHT22;6145;50.192;10.064;2022-09-03T03:30:08;16.80;46.20
12164;DHT22;6145;50.192;10.064;2022-09-03T03:32:35;16.80;46.20
12164;DHT22;6145;50.192;10.064;2022-09-03T03:35:03;16.70;46.20
12164;DHT22;6145;50.192;10.064;2022-09-03T03:37:30;16.70;46.20
12164;DHT22;6145;50.192;10.064;2022-09-03T03:39:57;16.70;46.40
12164;DHT22;6145;50.192;10.064;2022-09-03T03:42:25;16.70;46.50
12164;DHT22;6145;50.192;10.064;2022-09-03T03:44:51;16.60;46.60
12164;DHT22;6145;50.192;10.064;2022-09-03T03:47:18;16.70;46.60
12164;DHT22;6145;50.192;10.064;2022-09-03T03:49:45;16.60;46.60
12164;DHT22;6145;50.192;10.064;2022-09-03T03:52:12;16.60;46.80
12164;DHT22;6145;50.192;10.064;2022-09-03T03:54:38;16.60;46.70
12164;DHT22;6145;50.192;10.064;2022-09-03T03:57:05;16.60;46.80
12164;DHT22;6145;50.192;10.064;2022-09-03T03:59:33;16.50;46.70
12164;DHT22;6145;50.192;10.064;2022-09-03T04:02:00;16.50;46.60
12164;DHT22;6145;50.192;10.064;2022-09-03T04:04:26;16.50;46.70
12164;DHT22;6145;50.192;10.064;2022-09-03T04:06:53;16.50;46.70
12164;DHT22;6145;50.192;10.064;2022-09-03T04:09:20;16.50;46.70
12164;DHT22;6145;50.192;10.064;2022-09-03T04:11:46;16.50;46.80
12164;DHT22;6145;50.192;10.064;2022-09-03T04:14:15;16.50;46.90
12164;DHT22;6145;50.192;10.064;2022-09-03T04:16:43;16.40;46.90
12164;DHT22;6145;50.192;10.064;2022-09-03T04:19:11;16.40;47.00
12164;DHT22;6145;50.192;10.064;2022-09-03T04:21:38;16.40;47.00
12164;DHT22;6145;50.192;10.064;2022-09-03T04:24:05;16.40;47.10
12164;DHT22;6145;50.192;10.064;2022-09-03T04:26:33;16.40;47.30
12164;DHT22;6145;50.192;10.064;2022-09-03T04:29:01;16.30;47.30
12164;DHT22;6145;50.192;10.064;2022-09-03T04:31:29;16.30;47.30
12164;DHT22;6145;50.192;10.064;2022-09-03T04:33:57;16.30;47.50
12164;DHT22;6145;50.192;10.064;2022-09-03T04:36:26;16.30;47.60
12164;DHT22;6145;50.192;10.064;2022-09-03T04:38:54;16.20;47.60
12164;DHT22;6145;50.192;10.064;2022-09-03T04:41:22;16.20;47.50
12164;DHT22;6145;50.192;10.064;2022-09-03T04:43:50;16.20;47.80
12164;DHT22;6145;50.192;10.064;2022-09-03T04:46:18;16.20;48.40
12164;DHT22;6145;50.192;10.064;2022-09-03T04:48:47;16.10;47.60
12164;DHT22;6145;50.192;10.064;2022-09-03T04:51:18;16.10;47.70
12164;DHT22;6145;50.192;10.064;2022-09-03T04:53:46;16.10;48.10
12164;DHT22;6145;50.192;10.064;2022-09-03T04:56:15;16.10;48.00
12164;DHT22;6145;50.192;10.064;2022-09-03T04:58:43;16.10;48.00
12164;DHT22;6145;50.192;10.064;2022-09-03T05:01:11;16.00;47.80
12164;DHT22;6145;50.192;10.064;2022-09-03T05:03:38;16.00;47.90
12164;DHT22;6145;50.192;10.064;2022-09-03T05:06:05;16.10;48.20
12164;DHT22;6145;50.192;10.064;2022-09-03T05:08:35;15.90;48.10
12164;DHT22;6145;50.192;10.064;2022-09-03T05:11:02;16.00;48.20
12164;DHT22;6145;50.192;10.064;2022-09-03T05:13:29;16.00;48.20
12164;DHT22;6145;50.192;10.064;2022-09-03T05:15:58;16.00;48.10
12164;DHT22;6145;50.192;10.064;2022-09-03T05:18:26;16.00;48.20
12164;DHT22;6145;50.192;10.064;2022-09-03T05:20:57;15.90;48.20
12164;DHT22;6145;50.192;10.064;2022-09-03T05:23:24;15.90;48.10
12164;DHT22;6145;50.192;10.064;2022-09-03T05:25:55;16.00;48.30
12164;DHT22;6145;50.192;10.064;2022-09-03T05:28:24;15.90;48.30
12164;DHT22;6145;50.192;10.064;2022-09-03T05:31:02;15.90;48.70
12164;DHT22;6145;50.192;10.064;2022-09-03T05:33:32;15.90;48.80
12164;DHT22;6145;50.192;10.064;2022-09-03T05:36:00;15.90;49.00
12164;DHT22;6145;50.192;10.064;2022-09-03T05:38:27;15.90;48.90
12164;DHT22;6145;50.192;10.064;2022-09-03T05:40:58;15.80;49.00
12164;DHT22;6145;50.192;10.064;2022-09-03T05:43:26;15.90;49.40
12164;DHT22;6145;50.192;10.064;2022-09-03T05:45:56;15.90;49.20
12164;DHT22;6145;50.192;10.064;2022-09-03T05:48:24;15.90;49.50
12164;DHT22;6145;50.192;10.064;2022-09-03T05:50:58;15.90;49.40
12164;DHT22;6145;50.192;10.064;2022-09-03T05:53:25;15.90;49.40
12164;DHT22;6145;50.192;10.064;2022-09-03T05:55:54;15.90;49.70
12164;DHT22;6145;50.192;10.064;2022-09-03T05:58:22;15.90;49.70
12164;DHT22;6145;50.192;10.064;2022-09-03T06:00:49;16.00;49.80
12164;DHT22;6145;50.192;10.064;2022-09-03T06:03:16;16.00;49.90
12164;DHT22;6145;50.192;10.064;2022-09-03T06:05:49;16.00;49.90
12164;DHT22;6145;50.192;10.064;2022-09-03T06:08:16;16.00;50.00
12164;DHT22;6145;50.192;10.064;2022-09-03T06:10:43;16.10;50.00
12164;DHT22;6145;50.192;10.064;2022-09-03T06:16:34;16.10;49.80
12164;DHT22;6145;50.192;10.064;2022-09-03T06:19:02;16.10;50.00
12164;DHT22;6145;50.192;10.064;2022-09-03T06:21:34;16.20;49.90
12164;DHT22;6145;50.192;10.064;2022-09-03T06:24:01;16.20;49.90
12164;DHT22;6145;50.192;10.064;2022-09-03T06:26:28;16.20;49.90
12164;DHT22;6145;50.192;10.064;2022-09-03T06:28:56;16.20;49.90
12164;DHT22;6145;50.192;10.064;2022-09-03T06:31:25;16.30;49.90
12164;DHT22;6145;50.192;10.064;2022-09-03T06:33:53;16.20;49.70
12164;DHT22;6145;50.192;10.064;2022-09-03T06:36:21;16.30;49.70
12164;DHT22;6145;50.192;10.064;2022-09-03T06:38:51;16.40;49.70
12164;DHT22;6145;50.192;10.064;2022-09-03T06:41:20;16.40;49.70
12164;DHT22;6145;50.192;10.064;2022-09-03T06:43:50;16.40;49.70
12164;DHT22;6145;50.192;10.064;2022-09-03T06:46:19;16.50;49.70
12164;DHT22;6145;50.192;10.064;2022-09-03T06:48:47;16.50;49.70
12164;DHT22;6145;50.192;10.064;2022-09-03T06:51:18;16.50;49.70
12164;DHT22;6145;50.192;10.064;2022-09-03T06:53:47;16.60;49.70
12164;DHT22;6145;50.192;10.064;2022-09-03T06:56:15;16.60;49.70
12164;DHT22;6145;50.192;10.064;2022-09-03T06:58:44;16.60;49.60
12164;DHT22;6145;50.192;10.064;2022-09-03T07:01:13;16.70;49.70
12164;DHT22;6145;50.192;10.064;2022-09-03T07:03:41;16.70;49.80
12164;DHT22;6145;50.192;10.064;2022-09-03T07:06:09;16.70;50.60
12164;DHT22;6145;50.192;10.064;2022-09-03T07:08:38;16.80;50.00
12164;DHT22;6145;50.192;10.064;2022-09-03T07:11:08;16.80;50.00
12164;DHT22;6145;50.192;10.064;2022-09-03T07:13:36;16.80;49.90
12164;DHT22;6145;50.192;10.064;2022-09-03T07:16:06;16.90;49.90
12164;DHT22;6145;50.192;10.064;2022-09-03T07:18:33;16.90;49.90
12164;DHT22;6145;50.192;10.064;2022-09-03T07:21:01;17.00;50.00
12164;DHT22;6145;50.192;10.064;2022-09-03T07:23:30;17.00;49.90
12164;DHT22;6145;50.192;10.064;2022-09-03T07:26:00;17.00;49.80
12164;DHT22;6145;50.192;10.064;2022-09-03T07:28:27;17.10;49.90
12164;DHT22;6145;50.192;10.064;2022-09-03T07:31:01;17.10;49.90
12164;DHT22;6145;50.192;10.064;2022-09-03T07:33:28;17.20;49.90
12164;DHT22;6145;50.192;10.064;2022-09-03T07:36:00;17.20;49.90
12164;DHT22;6145;50.192;10.064;2022-09-03T07:38:27;17.30;49.80
12164;DHT22;6145;50.192;10.064;2022-09-03T07:40:56;17.30;49.60
12164;DHT22;6145;50.192;10.064;2022-09-03T07:43:26;17.40;49.60
12164;DHT22;6145;50.192;10.064;2022-09-03T07:45:53;17.40;49.50
12164;DHT22;6145;50.192;10.064;2022-09-03T07:48:20;17.50;49.50
12164;DHT22;6145;50.192;10.064;2022-09-03T07:50:47;17.50;49.40
12164;DHT22;6145;50.192;10.064;2022-09-03T07:53:15;17.60;49.30
12164;DHT22;6145;50.192;10.064;2022-09-03T07:55:42;17.60;49.30
12164;DHT22;6145;50.192;10.064;2022-09-03T07:58:09;17.60;49.30
12164;DHT22;6145;50.192;10.064;2022-09-03T08:00:38;17.70;49.30
12164;DHT22;6145;50.192;10.064;2022-09-03T08:03:05;17.80;49.30
12164;DHT22;6145;50.192;10.064;2022-09-03T08:05:34;17.80;49.20
12164;DHT22;6145;50.192;10.064;2022-09-03T08:08:01;17.90;49.80
12164;DHT22;6145;50.192;10.064;2022-09-03T08:10:28;17.90;49.00
12164;DHT22;6145;50.192;10.064;2022-09-03T08:12:57;18.00;49.00
12164;DHT22;6145;50.192;10.064;2022-09-03T08:15:24;18.20;49.00
12164;DHT22;6145;50.192;10.064;2022-09-03T08:17:52;18.10;48.90
12164;DHT22;6145;50.192;10.064;2022-09-03T08:20:19;18.20;48.90
12164;DHT22;6145;50.192;10.064;2022-09-03T08:22:46;18.20;49.60
12164;DHT22;6145;50.192;10.064;2022-09-03T08:25:13;18.40;48.90
12164;DHT22;6145;50.192;10.064;2022-09-03T08:27:40;18.30;48.70
12164;DHT22;6145;50.192;10.064;2022-09-03T08:30:07;18.50;48.70
12164;DHT22;6145;50.192;10.064;2022-09-03T08:32:36;18.50;48.60
12164;DHT22;6145;50.192;10.064;2022-09-03T08:35:06;18.50;48.50
12164;DHT22;6145;50.192;10.064;2022-09-03T08:37:33;18.60;48.50
12164;DHT22;6145;50.192;10.064;2022-09-03T08:40:00;18.70;48.50
12164;DHT22;6145;50.192;10.064;2022-09-03T08:42:38;18.70;48.40
12164;DHT22;6145;50.192;10.064;2022-09-03T08:45:14;18.80;48.50
12164;DHT22;6145;50.192;10.064;2022-09-03T08:47:44;18.80;48.30
12164;DHT22;6145;50.192;10.064;2022-09-03T08:50:21;18.90;48.20
12164;DHT22;6145;50.192;10.064;2022-09-03T08:52:52;19.00;48.20
12164;DHT22;6145;50.192;10.064;2022-09-03T08:55:27;19.00;48.10
12164;DHT22;6145;50.192;10.064;2022-09-03T08:58:00;19.10;48.10
12164;DHT22;6145;50.192;10.064;2022-09-03T09:00:39;19.10;48.00
12164;DHT22;6145;50.192;10.064;2022-09-03T09:03:27;19.10;47.90
12164;DHT22;6145;50.192;10.064;2022-09-03T09:06:06;19.20;48.00
12164;DHT22;6145;50.192;10.064;2022-09-03T09:08:38;19.20;47.90
12164;DHT22;6145;50.192;10.064;2022-09-03T09:11:18;19.30;47.90
12164;DHT22;6145;50.192;10.064;2022-09-03T09:13:53;19.30;47.80
12164;DHT22;6145;50.192;10.064;2022-09-03T09:16:29;19.30;47.80
12164;DHT22;6145;50.192;10.064;2022-09-03T09:19:15;19.40;47.80
12164;DHT22;6145;50.192;10.064;2022-09-03T09:21:47;19.40;47.80
12164;DHT22;6145;50.192;10.064;2022-09-03T09:24:18;19.50;47.70
12164;DHT22;6145;50.192;10.064;2022-09-03T09:26:48;19.50;47.70
12164;DHT22;6145;50.192;10.064;2022-09-03T09:29:15;19.60;47.80
12164;DHT22;6145;50.192;10.064;2022-09-03T09:31:42;19.60;47.70
12164;DHT22;6145;50.192;10.064;2022-09-03T09:34:10;19.70;47.70
12164;DHT22;6145;50.192;10.064;2022-09-03T09:36:44;19.70;48.20
12164;DHT22;6145;50.192;10.064;2022-09-03T09:39:13;19.80;47.70
12164;DHT22;6145;50.192;10.064;2022-09-03T09:41:41;19.80;47.60
12164;DHT22;6145;50.192;10.064;2022-09-03T09:44:16;19.90;47.60
12164;DHT22;6145;50.192;10.064;2022-09-03T09:46:43;19.90;47.50
12164;DHT22;6145;50.192;10.064;2022-09-03T09:49:24;20.00;47.60
12164;DHT22;6145;50.192;10.064;2022-09-03T09:52:02;20.10;47.60
12164;DHT22;6145;50.192;10.064;2022-09-03T09:54:30;20.10;47.50
12164;DHT22;6145;50.192;10.064;2022-09-03T09:57:02;20.20;47.50
12164;DHT22;6145;50.192;10.064;2022-09-03T09:59:30;20.30;47.50
12164;DHT22;6145;50.192;10.064;2022-09-03T10:02:10;20.30;47.50
12164;DHT22;6145;50.192;10.064;2022-09-03T10:04:38;20.40;47.70
12164;DHT22;6145;50.192;10.064;2022-09-03T10:07:21;20.50;47.80
12164;DHT22;6145;50.192;10.064;2022-09-03T10:10:02;20.60;47.80
12164;DHT22;6145;50.192;10.064;2022-09-03T10:12:36;20.70;47.70
12164;DHT22;6145;50.192;10.064;2022-09-03T10:15:11;20.80;48.30
12164;DHT22;6145;50.192;10.064;2022-09-03T10:17:48;20.90;47.50
12164;DHT22;6145;50.192;10.064;2022-09-03T10:20:23;21.00;47.40
12164;DHT22;6145;50.192;10.064;2022-09-03T10:23:01;21.20;47.30
12164;DHT22;6145;50.192;10.064;2022-09-03T10:25:37;21.20;47.20
12164;DHT22;6145;50.192;10.064;2022-09-03T10:28:07;21.30;47.00
12164;DHT22;6145;50.192;10.064;2022-09-03T10:30:41;21.50;47.00
12164;DHT22;6145;50.192;10.064;2022-09-03T10:33:17;21.60;46.90
12164;DHT22;6145;50.192;10.064;2022-09-03T10:35:52;21.70;46.60
12164;DHT22;6145;50.192;10.064;2022-09-03T10:38:26;21.80;46.60
12164;DHT22;6145;50.192;10.064;2022-09-03T10:40:59;21.90;46.20
12164;DHT22;6145;50.192;10.064;2022-09-03T10:43:43;22.00;46.10
12164;DHT22;6145;50.192;10.064;2022-09-03T10:46:15;22.10;45.90
12164;DHT22;6145;50.192;10.064;2022-09-03T10:48:50;22.20;45.50
12164;DHT22;6145;50.192;10.064;2022-09-03T10:51:22;22.30;45.30
12164;DHT22;6145;50.192;10.064;2022-09-03T10:54:08;22.40;45.10
12164;DHT22;6145;50.192;10.064;2022-09-03T10:56:49;22.50;44.90
12164;DHT22;6145;50.192;10.064;2022-09-03T10:59:34;22.60;44.70
12164;DHT22;6145;50.192;10.064;2022-09-03T11:02:19;22.70;44.80
12164;DHT22;6145;50.192;10.064;2022-09-03T11:04:53;22.70;44.70
12164;DHT22;6145;50.192;10.064;2022-09-03T11:07:24;22.80;44.60
12164;DHT22;6145;50.192;10.064;2022-09-03T11:09:58;22.80;44.30
12164;DHT22;6145;50.192;10.064;2022-09-03T11:12:31;22.90;44.40
12164;DHT22;6145;50.192;10.064;2022-09-03T11:15:02;22.90;44.30
12164;DHT22;6145;50.192;10.064;2022-09-03T11:17:36;23.00;44.30
12164;DHT22;6145;50.192;10.064;2022-09-03T11:20:10;23.00;44.20
12164;DHT22;6145;50.192;10.064;2022-09-03T11:22:40;23.00;44.10
12164;DHT22;6145;50.192;10.064;2022-09-03T11:25:11;23.10;44.10
12164;DHT22;6145;50.192;10.064;2022-09-03T11:27:51;23.10;44.60
12164;DHT22;6145;50.192;10.064;2022-09-03T11:30:23;23.10;43.80
12164;DHT22;6145;50.192;10.064;2022-09-03T11:32:55;23.20;43.90
12164;DHT22;6145;50.192;10.064;2022-09-03T11:35:26;23.10;43.80
12164;DHT22;6145;50.192;10.064;2022-09-03T11:37:56;23.20;43.60
12164;DHT22;6145;50.192;10.064;2022-09-03T11:40:31;23.30;43.40
12164;DHT22;6145;50.192;10.064;2022-09-03T11:43:07;23.30;43.30
12164;DHT22;6145;50.192;10.064;2022-09-03T11:45:37;23.40;43.40
12164;DHT22;6145;50.192;10.064;2022-09-03T11:48:28;23.40;43.20
12164;DHT22;6145;50.192;10.064;2022-09-03T11:50:57;23.50;42.80
12164;DHT22;6145;50.192;10.064;2022-09-03T11:53:26;23.50;43.00
12164;DHT22;6145;50.192;10.064;2022-09-03T11:55:59;23.50;42.80
12164;DHT22;6145;50.192;10.064;2022-09-03T11:58:29;23.60;42.80
12164;DHT22;6145;50.192;10.064;2022-09-03T12:00:58;23.60;42.80
12164;DHT22;6145;50.192;10.064;2022-09-03T12:03:29;23.60;42.80
12164;DHT22;6145;50.192;10.064;2022-09-03T12:06:20;23.70;42.90
12164;DHT22;6145;50.192;10.064;2022-09-03T12:11:50;23.70;42.90
12164;DHT22;6145;50.192;10.064;2022-09-03T12:14:28;23.70;43.10
12164;DHT22;6145;50.192;10.064;2022-09-03T12:17:10;23.70;43.60
12164;DHT22;6145;50.192;10.064;2022-09-03T12:19:48;23.70;44.40
12164;DHT22;6145;50.192;10.064;2022-09-03T12:22:17;23.70;44.20
12164;DHT22;6145;50.192;10.064;2022-09-03T12:24:44;23.70;45.30
12164;DHT22;6145;50.192;10.064;2022-09-03T12:27:17;23.70;46.10
12164;DHT22;6145;50.192;10.064;2022-09-03T12:29:55;23.70;46.80
12164;DHT22;6145;50.192;10.064;2022-09-03T12:32:25;23.70;47.20
12164;DHT22;6145;50.192;10.064;2022-09-03T12:34:53;23.60;47.30
12164;DHT22;6145;50.192;10.064;2022-09-03T12:37:21;23.60;47.30
12164;DHT22;6145;50.192;10.064;2022-09-03T12:39:50;23.60;47.30
12164;DHT22;6145;50.192;10.064;2022-09-03T12:42:22;23.60;47.40
12164;DHT22;6145;50.192;10.064;2022-09-03T12:44:50;23.50;47.50
12164;DHT22;6145;50.192;10.064;2022-09-03T12:47:18;23.50;47.80
12164;DHT22;6145;50.192;10.064;2022-09-03T12:49:48;23.50;48.60
12164;DHT22;6145;50.192;10.064;2022-09-03T12:52:18;23.50;49.20
12164;DHT22;6145;50.192;10.064;2022-09-03T12:54:49;23.40;49.40
12164;DHT22;6145;50.192;10.064;2022-09-03T12:57:22;23.40;49.50
12164;DHT22;6145;50.192;10.064;2022-09-03T12:59:52;23.40;49.80
12164;DHT22;6145;50.192;10.064;2022-09-03T13:02:25;23.40;50.60
12164;DHT22;6145;50.192;10.064;2022-09-03T13:04:54;23.30;50.80
12164;DHT22;6145;50.192;10.064;2022-09-03T13:07:24;23.30;52.00
12164;DHT22;6145;50.192;10.064;2022-09-03T13:09:59;23.30;51.80
12164;DHT22;6145;50.192;10.064;2022-09-03T13:12:32;23.20;52.30
12164;DHT22;6145;50.192;10.064;2022-09-03T13:15:06;23.30;52.80
12164;DHT22;6145;50.192;10.064;2022-09-03T13:20:48;23.20;53.10
12164;DHT22;6145;50.192;10.064;2022-09-03T13:23:33;23.10;53.40
12164;DHT22;6145;50.192;10.064;2022-09-03T13:26:12;23.10;53.50
12164;DHT22;6145;50.192;10.064;2022-09-03T13:28:55;23.10;53.70
12164;DHT22;6145;50.192;10.064;2022-09-03T13:31:30;23.20;53.70
12164;DHT22;6145;50.192;10.064;2022-09-03T13:34:01;23.10;54.20
12164;DHT22;6145;50.192;10.064;2022-09-03T13:36:33;23.10;54.20
12164;DHT22;6145;50.192;10.064;2022-09-03T13:39:06;23.10;54.50
12164;DHT22;6145;50.192;10.064;2022-09-03T13:41:37;23.10;54.70
12164;DHT22;6145;50.192;10.064;2022-09-03T13:44:10;23.20;54.90
12164;DHT22;6145;50.192;10.064;2022-09-03T13:46:43;23.20;54.90
12164;DHT22;6145;50.192;10.064;2022-09-03T13:49:26;23.30;54.90
12164;DHT22;6145;50.192;10.064;2022-09-03T13:52:17;23.20;54.60
12164;DHT22;6145;50.192;10.064;2022-09-03T13:54:51;23.20;54.50
12164;DHT22;6145;50.192;10.064;2022-09-03T13:57:27;23.30;54.50
12164;DHT22;6145;50.192;10.064;2022-09-03T14:00:02;23.30;54.40
12164;DHT22;6145;50.192;10.064;2022-09-03T14:02:41;23.30;54.40
12164;DHT22;6145;50.192;10.064;2022-09-03T14:05:16;23.40;54.40
12164;DHT22;6145;50.192;10.064;2022-09-03T14:07:57;23.40;54.20
12164;DHT22;6145;50.192;10.064;2022-09-03T14:10:34;23.40;54.70
12164;DHT22;6145;50.192;10.064;2022-09-03T14:13:13;23.40;54.00
12164;DHT22;6145;50.192;10.064;2022-09-03T14:15:48;23.50;53.60
12164;DHT22;6145;50.192;10.064;2022-09-03T14:18:31;23.50;53.60
12164;DHT22;6145;50.192;10.064;2022-09-03T14:21:03;23.60;53.40
12164;DHT22;6145;50.192;10.064;2022-09-03T14:23:39;23.60;53.00
12164;DHT22;6145;50.192;10.064;2022-09-03T14:26:15;23.70;52.80
12164;DHT22;6145;50.192;10.064;2022-09-03T14:28:45;23.70;52.60
12164;DHT22;6145;50.192;10.064;2022-09-03T14:31:22;23.70;52.40
12164;DHT22;6145;50.192;10.064;2022-09-03T14:33:57;23.80;52.30
12164;DHT22;6145;50.192;10.064;2022-09-03T14:36:30;23.80;52.00
12164;DHT22;6145;50.192;10.064;2022-09-03T14:39:14;23.80;51.60
12164;DHT22;6145;50.192;10.064;2022-09-03T14:42:03;23.90;51.20
12164;DHT22;6145;50.192;10.064;2022-09-03T14:44:52;23.90;50.90
12164;DHT22;6145;50.192;10.064;2022-09-03T14:47:34;24.00;50.80
12164;DHT22;6145;50.192;10.064;2022-09-03T14:50:34;24.00;50.70
12164;DHT22;6145;50.192;10.064;2022-09-03T14:53:27;24.00;50.40
12164;DHT22;6145;50.192;10.064;2022-09-03T14:56:05;24.00;50.20
12164;DHT22;6145;50.192;10.064;2022-09-03T14:58:52;24.00;50.10
12164;DHT22;6145;50.192;10.064;2022-09-03T15:01:28;24.00;49.90
12164;DHT22;6145;50.192;10.064;2022-09-03T15:07:17;24.10;49.80
12164;DHT22;6145;50.192;10.064;2022-09-03T15:09:55;24.10;49.70
12164;DHT22;6145;50.192;10.064;2022-09-03T15:12:33;24.10;49.70
12164;DHT22;6145;50.192;10.064;2022-09-03T15:15:06;24.10;49.60
12164;DHT22;6145;50.192;10.064;2022-09-03T15:17:49;24.10;49.50
12164;DHT22;6145;50.192;10.064;2022-09-03T15:20:23;24.10;49.30
12164;DHT22;6145;50.192;10.064;2022-09-03T15:23:18;24.10;49.20
12164;DHT22;6145;50.192;10.064;2022-09-03T15:26:04;24.20;49.00
12164;DHT22;6145;50.192;10.064;2022-09-03T15:28:37;24.20;49.00
12164;DHT22;6145;50.192;10.064;2022-09-03T15:31:15;24.20;48.90
12164;DHT22;6145;50.192;10.064;2022-09-03T15:33:52;24.20;48.70
12164;DHT22;6145;50.192;10.064;2022-09-03T15:36:23;24.30;48.70
12164;DHT22;6145;50.192;10.064;2022-09-03T15:38:54;24.30;48.50
12164;DHT22;6145;50.192;10.064;2022-09-03T15:41:33;24.30;48.50
12164;DHT22;6145;50.192;10.064;2022-09-03T15:44:02;24.20;48.40
12164;DHT22;6145;50.192;10.064;2022-09-03T15:46:44;24.30;48.40
12164;DHT22;6145;50.192;10.064;2022-09-03T15:49:22;24.30;48.50
12164;DHT22;6145;50.192;10.064;2022-09-03T15:51:59;24.30;48.40
12164;DHT22;6145;50.192;10.064;2022-09-03T15:54:37;24.30;48.30
12164;DHT22;6145;50.192;10.064;2022-09-03T15:57:11;24.40;48.30
12164;DHT22;6145;50.192;10.064;2022-09-03T15:59:40;24.20;48.10
12164;DHT22;6145;50.192;10.064;2022-09-03T16:02:13;24.20;47.70
12164;DHT22;6145;50.192;10.064;2022-09-03T16:05:01;24.20;47.50
12164;DHT22;6145;50.192;10.064;2022-09-03T16:07:45;24.20;47.20
12164;DHT22;6145;50.192;10.064;2022-09-03T16:10:16;24.20;47.30
12164;DHT22;6145;50.192;10.064;2022-09-03T16:12:50;24.20;47.30
12164;DHT22;6145;50.192;10.064;2022-09-03T16:15:19;24.20;47.20